Time;durP1;ratioP1;P1;durP2;ratioP2;P2;SDS_P1;SDS_P2;PMS_P1;PMS_P2;Temp;Humidity;BMP_temperature;BMP_pressure;BME280_temperature;BME280_humidity;BME280_pressure;Samples;Min_cycle;Max_cycle;Signal;HPM_P1;HPM_P2
2022/09/09 00:01:46;;;;;;;7.28;4.85;;;14.60;99.90;;;;;;4950183;28;20048;-83
2022/09/09 00:04:21;;;;;;;7.28;5.00;;;14.60;99.90;;;;;;4954276;28;20039;-83
2022/09/09 00:07:02;;;;;;;6.72;5.20;;;14.60;99.90;;;;;;4945630;28;20043;-83
2022/09/09 00:09:29;;;;;;;7.10;5.78;;;14.50;99.90;;;;;;4963421;28;20420;-82
2022/09/09 00:12:04;;;;;;;7.65;5.50;;;14.60;99.90;;;;;;4951242;28;20040;-82
2022/09/09 00:14:55;;;;;;;8.30;6.72;;;14.60;99.90;;;;;;4947477;28;20159;-83
2022/09/09 00:17:39;;;;;;;8.15;5.75;;;14.50;99.90;;;;;;4941402;28;20071;-83
2022/09/09 00:20:33;;;;;;;8.60;6.05;;;14.50;99.90;;;;;;4953901;28;20079;-83
2022/09/09 00:23:14;;;;;;;7.57;5.63;;;14.50;99.90;;;;;;4952753;28;20079;-83
2022/09/09 00:26:04;;;;;;;8.52;6.03;;;14.50;99.90;;;;;;4964800;28;20463;-83
2022/09/09 00:28:34;;;;;;;7.70;5.63;;;14.50;99.90;;;;;;4945465;28;20051;-83
2022/09/09 00:31:11;;;;;;;12.45;6.75;;;14.50;99.90;;;;;;4946934;29;20143;-83
2022/09/09 00:33:42;;;;;;;7.30;6.35;;;14.50;99.90;;;;;;4957062;28;20090;-83
2022/09/09 00:36:15;;;;;;;11.88;6.18;;;14.40;99.90;;;;;;4945577;29;20616;-83
2022/09/09 00:38:51;;;;;;;8.60;5.78;;;14.40;99.90;;;;;;4958279;28;20040;-83
2022/09/09 00:41:25;;;;;;;11.80;6.18;;;14.40;99.90;;;;;;4949182;28;20098;-83
2022/09/09 00:44:00;;;;;;;10.52;5.13;;;14.40;99.90;;;;;;4961554;28;20489;-83
2022/09/09 00:46:51;;;;;;;11.23;6.28;;;14.40;99.90;;;;;;4933787;29;20662;-82
2022/09/09 00:49:51;;;;;;;10.05;5.93;;;14.40;99.90;;;;;;4959275;28;20094;-83
2022/09/09 00:52:25;;;;;;;8.40;5.82;;;14.40;99.90;;;;;;4960195;28;20062;-83
2022/09/09 00:55:32;;;;;;;7.95;5.70;;;14.40;99.90;;;;;;4959453;28;20429;-83
2022/09/09 00:57:58;;;;;;;10.48;6.28;;;14.40;99.90;;;;;;4943153;28;20055;-83
2022/09/09 01:00:26;;;;;;;10.38;6.45;;;14.40;99.90;;;;;;4942494;28;20496;-83
2022/09/09 01:03:30;;;;;;;10.90;5.60;;;14.40;99.90;;;;;;4959237;28;20044;-83
2022/09/09 01:06:16;;;;;;;13.70;6.00;;;14.40;99.90;;;;;;4956205;28;20039;-83
2022/09/09 01:09:08;;;;;;;10.32;5.32;;;14.40;99.90;;;;;;4946817;28;20047;-83
2022/09/09 01:11:34;;;;;;;15.35;5.97;;;14.40;99.90;;;;;;4958602;28;20761;-83
2022/09/09 01:14:30;;;;;;;10.68;5.78;;;14.40;99.90;;;;;;4962774;28;20078;-83
2022/09/09 01:17:01;;;;;;;8.38;6.22;;;14.40;99.90;;;;;;4948885;28;20054;-83
2022/09/09 01:19:44;;;;;;;8.50;5.07;;;14.40;99.90;;;;;;4963963;28;20126;-83
2022/09/09 01:22:09;;;;;;;9.73;5.40;;;14.50;99.90;;;;;;4957377;28;20090;-83
2022/09/09 01:24:56;;;;;;;7.70;5.35;;;14.50;99.90;;;;;;4944788;28;20457;-83
2022/09/09 01:27:24;;;;;;;11.68;6.75;;;14.50;99.90;;;;;;4958954;28;20129;-83
2022/09/09 01:29:50;;;;;;;9.15;5.75;;;14.50;99.90;;;;;;4956137;28;20063;-83
2022/09/09 01:32:40;;;;;;;12.65;6.10;;;14.50;99.90;;;;;;4947650;28;20456;-83
2022/09/09 01:35:10;;;;;;;16.52;5.90;;;14.50;99.90;;;;;;4950666;28;20130;-83
2022/09/09 01:37:35;;;;;;;10.98;5.10;;;14.60;99.90;;;;;;4927826;29;20117;-83
2022/09/09 01:40:01;;;;;;;13.50;5.05;;;14.60;99.90;;;;;;4938716;28;20121;-83
2022/09/09 01:42:27;;;;;;;6.38;5.32;;;14.50;99.90;;;;;;4941720;28;20042;-83
2022/09/09 01:44:54;;;;;;;11.07;5.20;;;14.50;99.90;;;;;;4945720;28;20065;-83
2022/09/09 01:47:19;;;;;;;10.13;5.18;;;14.60;99.90;;;;;;4946412;28;20175;-83
2022/09/09 01:49:45;;;;;;;8.60;5.97;;;14.60;99.90;;;;;;4942781;28;20126;-83
2022/09/09 01:52:10;;;;;;;10.50;5.18;;;14.60;99.90;;;;;;4959584;28;20050;-83
2022/09/09 01:58:20;;;;;;;12.85;4.90;;;14.70;99.90;;;;;;4959566;28;20106;-83
2022/09/09 02:01:01;;;;;;;9.95;4.90;;;14.70;99.90;;;;;;4960764;28;20052;-83
2022/09/09 02:03:28;;;;;;;7.68;4.90;;;14.80;99.90;;;;;;4950089;28;20039;-83
2022/09/09 02:05:54;;;;;;;14.93;5.25;;;14.70;99.90;;;;;;4945765;28;20772;-83
2022/09/09 02:08:51;;;;;;;8.30;4.88;;;14.80;99.90;;;;;;4965675;28;20069;-83
2022/09/09 02:11:21;;;;;;;6.93;5.53;;;14.70;99.90;;;;;;4957221;28;20046;-83
2022/09/09 02:14:09;;;;;;;6.78;4.85;;;14.80;99.90;;;;;;4948275;28;20047;-83
2022/09/09 02:16:50;;;;;;;7.47;4.88;;;14.80;99.90;;;;;;4944018;28;20043;-83
2022/09/09 02:19:49;;;;;;;12.45;5.20;;;14.80;99.90;;;;;;4954830;28;20044;-83
2022/09/09 02:22:19;;;;;;;6.28;4.55;;;14.80;99.90;;;;;;4955283;28;20519;-83
2022/09/09 02:24:46;;;;;;;7.15;4.50;;;14.80;99.90;;;;;;4934849;29;20397;-84
2022/09/09 02:27:13;;;;;;;6.28;5.00;;;14.90;99.90;;;;;;4953064;28;20036;-82
2022/09/09 02:29:41;;;;;;;11.63;4.85;;;14.90;99.90;;;;;;4945715;28;20126;-83
2022/09/09 02:32:22;;;;;;;9.50;5.30;;;14.90;99.90;;;;;;4941142;28;20551;-83
2022/09/09 02:35:10;;;;;;;;;;;14.90;99.90;;;;;;4940437;28;20078;-83
2022/09/09 02:37:38;;;;;;;9.38;4.78;;;14.90;99.90;;;;;;4949598;28;19926;-83
2022/09/09 02:40:06;;;;;;;7.47;5.00;;;14.90;99.90;;;;;;4953329;28;20047;-83
2022/09/09 02:42:32;;;;;;;6.80;4.50;;;14.90;99.90;;;;;;4954932;28;20039;-83
2022/09/09 02:44:58;;;;;;;8.60;4.80;;;14.90;99.90;;;;;;4941662;28;20105;-83
2022/09/09 02:47:34;;;;;;;8.07;5.00;;;15.10;99.90;;;;;;4910157;29;20044;-83
2022/09/09 02:50:10;;;;;;;7.13;4.72;;;14.90;99.90;;;;;;4956045;28;20049;-83
2022/09/09 02:52:52;;;;;;;9.70;5.00;;;14.90;99.90;;;;;;4953836;28;20043;-83
2022/09/09 02:55:26;;;;;;;13.15;4.85;;;14.90;99.90;;;;;;4942346;28;20103;-83
2022/09/09 02:57:53;;;;;;;6.70;6.03;;;14.90;99.90;;;;;;4956403;28;20113;-83
2022/09/09 03:00:27;;;;;;;10.00;5.20;;;15.10;99.90;;;;;;4938296;28;20160;-83
2022/09/09 03:02:54;;;;;;;6.18;4.28;;;15.00;99.90;;;;;;4955034;28;20119;-83
2022/09/09 03:05:20;;;;;;;8.43;4.72;;;15.00;99.90;;;;;;4946441;28;20451;-83
2022/09/09 03:07:46;;;;;;;10.07;4.28;;;14.90;99.90;;;;;;4941177;28;20550;-82
2022/09/09 03:10:12;;;;;;;7.72;3.45;;;15.00;99.90;;;;;;4943280;28;20081;-82
2022/09/09 03:12:38;;;;;;;6.88;4.20;;;14.90;99.90;;;;;;4939475;29;20119;-83
2022/09/09 03:15:04;;;;;;;8.20;5.40;;;15.00;99.90;;;;;;4937928;28;20066;-82
2022/09/09 03:17:30;;;;;;;9.27;4.57;;;15.00;99.90;;;;;;4937986;28;20134;-82
2022/09/09 03:19:58;;;;;;;5.78;4.07;;;15.00;99.90;;;;;;4955770;28;20134;-82
2022/09/09 03:22:25;;;;;;;7.65;4.25;;;15.00;99.90;;;;;;4944531;28;20050;-82
2022/09/09 03:24:51;;;;;;;6.72;3.72;;;15.00;99.90;;;;;;4957911;28;20039;-82
2022/09/09 03:27:17;;;;;;;6.15;3.75;;;15.00;99.90;;;;;;4958965;28;20047;-82
2022/09/09 03:29:42;;;;;;;8.90;3.95;;;15.00;99.90;;;;;;4942395;28;20094;-83
2022/09/09 03:32:10;;;;;;;5.25;3.50;;;15.00;99.90;;;;;;4960359;28;20043;-82
2022/09/09 03:34:38;;;;;;;6.13;3.42;;;15.00;99.90;;;;;;4945397;28;20050;-82
2022/09/09 03:37:05;;;;;;;4.20;3.10;;;14.90;99.90;;;;;;4959203;28;20093;-82
2022/09/09 03:39:31;;;;;;;6.03;3.50;;;15.00;99.90;;;;;;4935184;29;20114;-83
2022/09/09 03:41:56;;;;;;;7.10;3.70;;;15.00;99.90;;;;;;4941133;28;20123;-83
2022/09/09 03:44:22;;;;;;;8.00;4.10;;;15.00;99.90;;;;;;4942939;28;20098;-83
2022/09/09 03:46:47;;;;;;;6.88;4.00;;;15.00;99.90;;;;;;4942853;28;20035;-83
2022/09/09 03:49:13;;;;;;;6.05;3.92;;;14.90;99.90;;;;;;4952730;28;20040;-83
2022/09/09 03:51:39;;;;;;;12.35;4.68;;;15.00;99.90;;;;;;4956683;28;20043;-83
2022/09/09 03:54:07;;;;;;;5.80;4.68;;;14.90;99.90;;;;;;4943928;28;20151;-82
2022/09/09 03:56:34;;;;;;;7.45;4.63;;;15.00;99.90;;;;;;4935908;29;20038;-83
2022/09/09 03:58:59;;;;;;;6.68;5.40;;;14.90;99.90;;;;;;4961269;28;20500;-83
2022/09/09 04:01:25;;;;;;;7.63;5.40;;;14.90;99.90;;;;;;4947103;28;20075;-83
2022/09/09 04:03:52;;;;;;;8.35;5.55;;;15.00;99.90;;;;;;4955777;28;20328;-83
2022/09/09 04:06:19;;;;;;;7.18;5.40;;;14.90;99.90;;;;;;4947256;28;20066;-83
2022/09/09 04:08:48;;;;;;;7.28;6.07;;;14.90;99.90;;;;;;4946890;29;20046;-84
2022/09/09 04:11:15;;;;;;;8.10;4.95;;;14.90;99.90;;;;;;4949861;28;20058;-83
2022/09/09 04:13:42;;;;;;;7.95;5.53;;;14.90;99.90;;;;;;4945516;28;20043;-83
2022/09/09 04:16:10;;;;;;;8.57;5.43;;;14.90;99.90;;;;;;4960493;28;20417;-83
2022/09/09 04:18:35;;;;;;;8.52;5.28;;;14.90;99.90;;;;;;4944073;28;20036;-83
2022/09/09 04:21:02;;;;;;;7.10;5.15;;;14.90;99.90;;;;;;4944047;28;20413;-82
2022/09/09 04:23:31;;;;;;;9.15;5.15;;;14.90;99.90;;;;;;4958218;28;20043;-83
2022/09/09 04:25:58;;;;;;;8.77;5.65;;;15.00;99.90;;;;;;4955821;28;20035;-83
2022/09/09 04:28:27;;;;;;;8.32;5.93;;;14.90;99.90;;;;;;4950124;28;20053;-83
2022/09/09 04:31:37;;;;;;;10.43;5.88;;;15.00;99.90;;;;;;4947397;29;20440;-85
2022/09/09 04:34:31;;;;;;;9.07;6.07;;;14.90;99.90;;;;;;4925873;28;20162;-84
2022/09/09 04:36:58;;;;;;;8.73;6.30;;;14.90;99.90;;;;;;4934380;29;20059;-84
2022/09/09 04:39:29;;;;;;;10.23;6.15;;;15.00;99.90;;;;;;4948268;29;20121;-84
2022/09/09 04:57:10;;;;;;;10.07;7.68;;;14.80;99.90;;;;;;4957653;28;20070;-86
2022/09/09 05:15:26;;;;;;;32.78;7.32;;;14.70;99.90;;;;;;4942742;29;20047;-88
2022/09/09 05:18:30;;;;;;;11.02;6.88;;;14.70;99.90;;;;;;4909297;29;20546;-81
2022/09/09 05:21:02;;;;;;;9.10;7.25;;;14.70;99.90;;;;;;4911414;29;20043;-84
2022/09/09 05:23:33;;;;;;;8.20;6.72;;;14.70;99.90;;;;;;4934356;28;20035;-85
2022/09/09 05:26:00;;;;;;;10.77;7.00;;;14.70;99.90;;;;;;4922381;29;20039;-85
2022/09/09 05:29:01;;;;;;;8.98;6.60;;;14.60;99.90;;;;;;4922829;29;20102;-85
2022/09/09 05:31:39;;;;;;;8.27;7.40;;;14.70;99.90;;;;;;4937545;29;20071;-85
2022/09/09 05:34:37;;;;;;;;;;;14.60;99.90;;;;;;4941442;29;20093;-87
2022/09/09 05:59:33;;;;;;;9.65;5.85;;;14.90;99.90;;;;;;4864773;29;20093;-83
2022/09/09 06:01:58;;;;;;;12.07;5.28;;;15.00;99.90;;;;;;4880719;29;20513;-84
2022/09/09 06:04:24;;;;;;;5.70;5.13;;;15.20;99.90;;;;;;4911958;28;20473;-83
2022/09/09 06:06:50;;;;;;;7.30;6.03;;;15.40;99.90;;;;;;4947536;28;20166;-84
2022/09/09 06:09:16;;;;;;;8.93;5.45;;;15.40;99.90;;;;;;4944045;28;20035;-86
2022/09/09 06:11:42;;;;;;;10.82;5.80;;;15.40;99.90;;;;;;4946826;28;20047;-84
2022/09/09 06:14:08;;;;;;;9.25;5.85;;;15.40;99.90;;;;;;4931678;29;20039;-85
2022/09/09 06:16:37;;;;;;;10.68;5.53;;;15.30;99.90;;;;;;4948203;28;20046;-85
2022/09/09 06:19:03;;;;;;;9.32;6.13;;;15.20;99.90;;;;;;4950284;28;20115;-84
2022/09/09 06:21:35;;;;;;;8.98;5.57;;;15.20;99.90;;;;;;4957986;28;20043;-84
2022/09/09 06:24:01;;;;;;;5.18;4.75;;;15.20;99.90;;;;;;4954170;28;20035;-84
2022/09/09 06:26:36;;;;;;;6.70;5.45;;;15.10;99.90;;;;;;4955709;28;20078;-84
2022/09/09 06:29:03;;;;;;;6.30;5.43;;;15.20;99.90;;;;;;4949214;28;20059;-84
2022/09/09 06:31:30;;;;;;;6.57;5.45;;;15.20;99.90;;;;;;4950686;28;20040;-84
2022/09/09 06:33:58;;;;;;;6.35;5.75;;;15.20;99.90;;;;;;4951390;28;20044;-84
2022/09/09 06:36:32;;;;;;;7.13;5.13;;;15.20;99.90;;;;;;4955866;28;20031;-85
2022/09/09 06:38:59;;;;;;;7.82;5.50;;;15.60;99.90;;;;;;4955323;28;20039;-85
2022/09/09 06:41:28;;;;;;;5.10;4.60;;;15.20;99.90;;;;;;4951326;28;20032;-84
2022/09/09 06:43:55;;;;;;;6.15;5.50;;;15.20;99.90;;;;;;4953170;29;20514;-84
2022/09/09 06:46:28;;;;;;;7.53;5.60;;;15.50;99.90;;;;;;4949526;28;20143;-85
2022/09/09 06:48:59;;;;;;;7.45;4.90;;;15.30;99.90;;;;;;4951754;29;20043;-85
2022/09/09 06:51:34;;;;;;;6.88;5.45;;;15.30;99.90;;;;;;4950769;28;20072;-85
2022/09/09 06:54:02;;;;;;;5.87;5.30;;;15.30;99.90;;;;;;4957181;28;20035;-85
2022/09/09 06:56:35;;;;;;;7.05;4.78;;;15.50;99.90;;;;;;4965210;28;20431;-84
2022/09/09 06:59:08;;;;;;;6.85;5.30;;;15.40;99.90;;;;;;4968909;28;20082;-85
2022/09/09 07:01:40;;;;;;;6.55;5.63;;;15.40;99.90;;;;;;4959562;28;20095;-85
2022/09/09 07:04:07;;;;;;;4.97;4.40;;;15.50;99.90;;;;;;4940388;28;20039;-85
2022/09/09 07:06:35;;;;;;;6.88;4.80;;;15.40;99.90;;;;;;4957367;28;20503;-85
2022/09/09 07:09:08;;;;;;;6.05;4.93;;;15.60;99.90;;;;;;4955473;28;20038;-84
2022/09/09 07:11:43;;;;;;;5.60;4.43;;;15.70;99.90;;;;;;4941273;29;20040;-84
2022/09/09 07:14:12;;;;;;;;;;;15.80;99.90;;;;;;4950416;29;20053;-85
2022/09/09 07:19:53;;;;;;;6.65;4.05;;;16.10;99.90;;;;;;4955809;28;20792;-83
2022/09/09 07:22:28;;;;;;;10.02;4.00;;;16.70;99.90;;;;;;4944112;28;20054;-84
2022/09/09 07:25:47;;;;;;;5.53;3.72;;;16.60;99.90;;;;;;4965976;28;20040;-85
2022/09/09 07:28:14;;;;;;;6.93;3.78;;;16.70;99.90;;;;;;4951795;28;20062;-83
2022/09/09 07:31:04;;;;;;;6.70;4.10;;;16.80;99.90;;;;;;4956525;28;20039;-85
2022/09/09 07:41:58;;;;;;;7.25;3.55;;;17.10;99.90;;;;;;4950274;28;20102;-85
2022/09/09 08:00:38;;;;;;;7.65;3.92;;;17.40;99.90;;;;;;4904211;29;20088;-91
2022/09/09 09:00:25;;;;;;;9.18;2.75;;;19.40;99.90;;;;;;4933298;29;20112;-87
2022/09/09 09:30:10;;;;;;;11.10;2.33;;;19.60;99.90;;;;;;4799357;29;20093;-87
2022/09/09 09:51:31;;;;;;;7.28;1.60;;;19.40;99.90;;;;;;4871061;29;20048;-83
2022/09/09 09:54:35;;;;;;;9.93;2.35;;;19.30;99.90;;;;;;4863000;29;20040;-84
2022/09/09 09:57:16;;;;;;;9.45;1.60;;;19.40;99.90;;;;;;4922795;28;20769;-83
2022/09/09 09:59:42;;;;;;;9.13;1.88;;;19.40;99.90;;;;;;4951073;28;20039;-84
2022/09/09 10:02:26;;;;;;;7.40;1.55;;;19.60;99.90;;;;;;4942378;28;20130;-83
2022/09/09 10:05:25;;;;;;;9.85;2.08;;;19.70;99.90;;;;;;4961045;28;20040;-84
2022/09/09 10:08:16;;;;;;;8.38;2.20;;;19.90;99.90;;;;;;4947819;28;20128;-83
2022/09/09 10:11:20;;;;;;;7.60;1.45;;;19.80;99.90;;;;;;4947732;28;20059;-83
2022/09/09 10:14:04;;;;;;;8.60;2.05;;;19.80;99.90;;;;;;4940882;29;20419;-83
2022/09/09 10:16:52;;;;;;;7.13;1.20;;;19.90;99.90;;;;;;4949325;28;20040;-83
2022/09/09 10:19:42;;;;;;;6.10;1.20;;;19.90;99.90;;;;;;4948497;28;20075;-84
2022/09/09 10:22:19;;;;;;;8.13;1.40;;;19.90;99.90;;;;;;4949251;28;20111;-83
2022/09/09 10:24:54;;;;;;;6.55;0.85;;;19.80;99.90;;;;;;4962469;28;20035;-83
2022/09/09 10:27:35;;;;;;;8.13;1.67;;;19.90;99.90;;;;;;4945637;28;20560;-83
2022/09/09 10:30:13;;;;;;;9.98;1.60;;;20.00;99.90;;;;;;4944780;28;20046;-83
2022/09/09 10:33:01;;;;;;;8.68;1.48;;;19.90;99.90;;;;;;4968088;28;20059;-83
2022/09/09 10:36:08;;;;;;;8.13;1.00;;;19.90;99.90;;;;;;4949086;28;20211;-83
2022/09/09 10:38:39;;;;;;;;;;;20.10;99.90;;;;;;4935199;28;20043;-83
2022/09/09 10:41:17;;;;;;;8.00;1.88;;;20.50;99.90;;;;;;4954526;28;19982;-83
2022/09/09 10:44:00;;;;;;;8.40;2.10;;;21.30;99.90;;;;;;4949776;28;20044;-83
2022/09/09 10:46:45;;;;;;;5.47;1.23;;;21.10;99.90;;;;;;4964321;28;20035;-83
2022/09/09 10:49:33;;;;;;;9.30;1.23;;;21.40;99.90;;;;;;4942018;28;20504;-84
2022/09/09 10:52:07;;;;;;;7.80;1.48;;;21.50;99.90;;;;;;4961239;28;20047;-84
2022/09/09 10:55:00;;;;;;;9.30;2.17;;;21.50;99.90;;;;;;4936954;28;20842;-84
2022/09/09 10:57:45;;;;;;;6.20;1.60;;;21.20;99.90;;;;;;4938718;28;20090;-85
2022/09/09 11:00:20;;;;;;;5.78;1.05;;;21.10;99.90;;;;;;4938598;28;20044;-85
2022/09/09 11:02:56;;;;;;;8.73;2.03;;;20.80;99.90;;;;;;4940976;28;20055;-85
2022/09/09 11:05:43;;;;;;;10.95;2.03;;;20.60;99.90;;;;;;4940173;28;20040;-85
2022/09/09 11:08:19;;;;;;;6.28;1.23;;;20.50;99.90;;;;;;4953395;28;20052;-85
2022/09/09 11:11:00;;;;;;;15.38;2.03;;;20.40;99.90;;;;;;4941435;28;20511;-85
2022/09/09 11:14:08;;;;;;;6.28;0.88;;;20.30;99.90;;;;;;4941524;28;20056;-84
2022/09/09 11:16:41;;;;;;;7.15;1.55;;;20.30;99.90;;;;;;4940246;28;20079;-85
2022/09/09 11:19:34;;;;;;;7.80;1.40;;;20.00;99.90;;;;;;4940255;28;20051;-85
2022/09/09 11:22:21;;;;;;;5.30;0.93;;;20.00;99.90;;;;;;4941812;28;20126;-85
2022/09/09 11:25:00;;;;;;;4.22;1.25;;;20.10;99.90;;;;;;4936898;28;20161;-85
2022/09/09 11:27:51;;;;;;;8.68;1.27;;;20.10;99.90;;;;;;4940049;28;20066;-85
2022/09/09 11:30:21;;;;;;;6.72;1.30;;;20.10;99.90;;;;;;4938063;28;20146;-84
2022/09/09 11:32:58;;;;;;;6.47;1.55;;;20.00;99.90;;;;;;4939645;28;20073;-85
2022/09/09 11:35:58;;;;;;;7.07;0.95;;;20.00;99.90;;;;;;4939700;28;20826;-85
2022/09/09 11:39:07;;;;;;;6.80;1.23;;;19.90;99.90;;;;;;4943157;28;20119;-85
2022/09/09 11:41:37;;;;;;;5.97;1.33;;;19.70;99.90;;;;;;4939849;28;20048;-84
2022/09/09 11:44:12;;;;;;;7.28;1.23;;;19.70;99.90;;;;;;4946801;28;20070;-84
2022/09/09 11:46:39;;;;;;;11.52;2.63;;;19.60;99.90;;;;;;4961164;28;20046;-83
2022/09/09 11:49:21;;;;;;;2.72;0.70;;;19.50;99.90;;;;;;4941854;28;20073;-83
2022/09/09 11:51:47;;;;;;;5.30;1.35;;;19.50;99.90;;;;;;4948018;28;20047;-84
2022/09/09 11:54:29;;;;;;;7.05;1.38;;;19.50;99.90;;;;;;4950557;28;20043;-84
2022/09/09 11:56:56;;;;;;;6.88;1.30;;;19.60;99.90;;;;;;4963626;28;20046;-84
2022/09/09 11:59:31;;;;;;;6.38;0.82;;;19.70;99.90;;;;;;4946489;28;20503;-84
2022/09/09 12:02:01;;;;;;;6.05;1.23;;;19.80;99.90;;;;;;4959535;28;20066;-84
2022/09/09 12:04:34;;;;;;;5.32;1.40;;;20.20;99.90;;;;;;4942686;28;20054;-84
2022/09/09 12:07:08;;;;;;;9.70;1.30;;;20.30;99.90;;;;;;4957720;28;20043;-84
2022/09/09 12:09:56;;;;;;;6.90;1.02;;;20.20;99.90;;;;;;4940158;28;20052;-84
2022/09/09 12:12:26;;;;;;;5.75;1.55;;;20.20;99.90;;;;;;4948841;28;20126;-85
2022/09/09 12:15:07;;;;;;;5.28;1.13;;;20.20;99.90;;;;;;4950895;28;20428;-84
2022/09/09 12:17:45;;;;;;;8.55;1.27;;;20.30;99.90;;;;;;4960204;28;20545;-84
2022/09/09 12:20:43;;;;;;;6.50;1.60;;;20.30;99.90;;;;;;4950434;28;20142;-84
2022/09/09 12:23:21;;;;;;;7.72;1.05;;;20.70;99.90;;;;;;4947043;28;20504;-84
2022/09/09 12:25:58;;;;;;;7.00;1.27;;;21.10;99.90;;;;;;4948772;28;20118;-84
2022/09/09 12:28:40;;;;;;;4.97;1.13;;;21.00;99.90;;;;;;4935715;28;20376;-84
2022/09/09 12:31:17;;;;;;;6.80;1.00;;;20.90;99.90;;;;;;4949455;28;20043;-83
2022/09/09 12:33:47;;;;;;;9.50;1.45;;;20.70;99.90;;;;;;4944846;28;20058;-85
2022/09/09 12:36:30;;;;;;;7.32;1.00;;;20.60;99.90;;;;;;4958674;28;20048;-84
2022/09/09 12:38:59;;;;;;;8.18;1.27;;;20.50;99.90;;;;;;4961303;28;20050;-84
2022/09/09 12:41:28;;;;;;;5.57;1.05;;;20.50;99.90;;;;;;4938533;28;20051;-84
2022/09/09 12:44:09;;;;;;;7.00;1.45;;;20.80;99.90;;;;;;4951101;28;20043;-84
2022/09/09 12:46:42;;;;;;;5.72;0.82;;;21.10;99.90;;;;;;4946038;28;20058;-84
2022/09/09 12:49:34;;;;;;;7.85;2.15;;;21.40;99.90;;;;;;4957345;28;20122;-84
2022/09/09 12:52:04;;;;;;;7.95;1.60;;;21.60;99.90;;;;;;4949006;29;20059;-84
2022/09/09 12:54:30;;;;;;;3.17;0.88;;;21.40;99.90;;;;;;4954077;28;20055;-85
2022/09/09 12:56:56;;;;;;;7.45;1.45;;;21.10;99.90;;;;;;4955199;28;20489;-83
2022/09/09 12:59:25;;;;;;;5.80;1.10;;;21.00;99.90;;;;;;4953076;28;20031;-83
2022/09/09 13:01:58;;;;;;;5.63;0.90;;;20.90;99.90;;;;;;4957776;28;20459;-84
2022/09/09 13:04:24;;;;;;;8.25;0.73;;;21.10;99.90;;;;;;4948948;29;20095;-85
2022/09/09 13:06:49;;;;;;;3.85;0.70;;;21.30;99.90;;;;;;4959656;28;20046;-84
2022/09/09 13:09:15;;;;;;;3.60;0.85;;;21.30;99.90;;;;;;4959352;28;20059;-85
2022/09/09 13:16:31;;;;;;;5.13;0.60;;;21.70;99.90;;;;;;4944776;28;20042;-88
2022/09/09 13:20:08;;;;;;;5.90;0.80;;;22.00;99.90;;;;;;4872314;29;20220;-87
2022/09/09 13:23:50;;;;;;;3.85;0.85;;;21.90;99.90;;;;;;4874993;29;20104;-86
2022/09/09 13:39:07;;;;;;;4.53;0.88;;;21.40;99.90;;;;;;4895530;29;20043;-87
2022/09/09 13:46:53;;;;;;;6.47;0.70;;;21.30;99.90;;;;;;4861416;29;20041;-86
2022/09/09 13:50:19;;;;;;;16.55;1.20;;;21.10;99.90;;;;;;4845992;29;20210;-87
2022/09/09 13:53:57;;;;;;;11.52;0.70;;;20.80;99.90;;;;;;4856959;29;20079;-87
2022/09/09 13:57:37;;;;;;;2.20;0.50;;;20.20;99.90;;;;;;4890828;29;20192;-87
2022/09/09 14:00:58;;;;;;;1.23;0.38;;;19.80;99.90;;;;;;4875545;29;20582;-87
2022/09/09 14:04:50;;;;;;;1.17;0.20;;;19.60;99.90;;;;;;4861854;29;20052;-87
2022/09/09 14:26:37;;;;;;;3.53;0.90;;;21.10;99.90;;;;;;4840347;29;20130;-86
2022/09/09 14:29:35;;;;;;;9.40;0.95;;;21.20;99.90;;;;;;4830772;29;20057;-87
2022/09/09 14:33:05;;;;;;;2.10;0.40;;;21.00;99.90;;;;;;4878009;29;20093;-87
2022/09/09 14:36:10;;;;;;;10.20;1.88;;;20.80;99.90;;;;;;4827519;29;20046;-88
2022/09/09 14:39:27;;;;;;;4.50;0.95;;;20.60;99.90;;;;;;4768761;29;20058;-86
2022/09/09 14:54:34;;;;;;;2.30;0.40;;;20.40;99.90;;;;;;4923616;29;20050;-88
2022/09/09 15:02:03;;;;;;;4.55;0.52;;;20.20;99.90;;;;;;4944578;28;20069;-87
2022/09/09 15:04:50;;;;;;;4.25;0.75;;;20.20;99.90;;;;;;4957991;28;20056;-88
2022/09/09 15:11:34;;;;;;;3.50;0.70;;;20.30;99.90;;;;;;4935257;28;20486;-83
2022/09/09 15:14:00;;;;;;;1.88;0.38;;;20.10;99.90;;;;;;4962181;28;20043;-84
2022/09/09 15:17:25;;;;;;;3.08;0.80;;;19.90;99.90;;;;;;4955035;28;20811;-88
2022/09/09 15:20:17;;;;;;;4.07;0.60;;;19.80;99.90;;;;;;4892605;29;20050;-83
2022/09/09 15:22:43;;;;;;;2.50;0.57;;;20.30;99.90;;;;;;4944979;28;20043;-83
2022/09/09 15:25:09;;;;;;;1.60;0.52;;;19.70;99.90;;;;;;4952735;28;20044;-83
2022/09/09 15:27:35;;;;;;;3.17;0.50;;;19.70;99.90;;;;;;4948667;29;20043;-84
2022/09/09 15:30:04;;;;;;;1.95;0.50;;;19.60;99.90;;;;;;4944057;28;20406;-84
2022/09/09 15:32:29;;;;;;;3.00;0.75;;;19.60;99.90;;;;;;4918525;29;20043;-83
2022/09/09 15:34:55;;;;;;;5.63;0.98;;;19.60;99.90;;;;;;4963882;28;20045;-84
2022/09/09 15:37:20;;;;;;;3.90;0.70;;;19.50;99.90;;;;;;4948811;28;20047;-84
2022/09/09 15:39:52;;;;;;;4.78;0.70;;;19.40;99.90;;;;;;4963432;28;20064;-85
2022/09/09 15:42:24;;;;;;;3.20;0.70;;;19.50;99.90;;;;;;4940135;29;20051;-84
2022/09/09 15:44:50;;;;;;;4.95;0.40;;;19.40;99.90;;;;;;4960985;28;20518;-86
2022/09/09 15:47:16;;;;;;;7.53;0.50;;;19.30;99.90;;;;;;4940715;28;20039;-85
2022/09/09 15:49:42;;;;;;;1.27;0.40;;;19.20;99.90;;;;;;4965067;28;20443;-85
2022/09/09 15:52:11;;;;;;;4.97;1.35;;;19.20;99.90;;;;;;4952831;29;20051;-85
2022/09/09 15:54:38;;;;;;;2.60;0.35;;;19.10;99.90;;;;;;4951189;28;20055;-84
2022/09/09 15:57:14;;;;;;;3.03;0.57;;;19.10;99.90;;;;;;4949899;28;20047;-85
2022/09/09 15:59:40;;;;;;;5.55;1.00;;;19.00;99.90;;;;;;4960043;28;20057;-84
2022/09/09 16:02:06;;;;;;;2.90;0.50;;;18.90;99.90;;;;;;4959730;28;20098;-84
2022/09/09 16:04:33;;;;;;;5.57;1.65;;;18.80;99.90;;;;;;4952695;28;20043;-84
2022/09/09 16:07:05;;;;;;;1.90;0.68;;;18.60;99.90;;;;;;4958983;28;20067;-84
2022/09/09 16:09:32;;;;;;;2.35;0.70;;;18.50;99.90;;;;;;4939267;28;20040;-84
2022/09/09 16:12:00;;;;;;;6.40;0.95;;;18.40;99.90;;;;;;4967222;28;20107;-84
2022/09/09 16:14:27;;;;;;;4.22;1.05;;;18.40;99.90;;;;;;4939030;29;20027;-85
2022/09/09 16:17:00;;;;;;;6.32;0.95;;;18.30;99.90;;;;;;4956830;28;20043;-85
2022/09/09 16:19:26;;;;;;;3.85;0.95;;;18.30;99.90;;;;;;4958032;28;20484;-85
2022/09/09 16:21:51;;;;;;;2.58;0.60;;;18.30;99.90;;;;;;4944632;29;20031;-85
2022/09/09 16:24:19;;;;;;;5.47;0.68;;;18.30;99.90;;;;;;4953182;28;20071;-85
2022/09/09 16:26:47;;;;;;;4.60;1.27;;;18.50;99.90;;;;;;4954429;28;20130;-85
2022/09/09 16:29:22;;;;;;;3.70;1.38;;;18.40;99.90;;;;;;4960667;28;20071;-85
2022/09/09 16:31:48;;;;;;;;;;;18.40;99.90;;;;;;4960923;28;20567;-85
2022/09/09 16:34:15;;;;;;;;;;;18.30;99.90;;;;;;4940777;29;19922;-84
2022/09/09 16:36:42;;;;;;;4.45;0.90;;;18.30;99.90;;;;;;4957988;28;19918;-85
2022/09/09 16:39:13;;;;;;;2.03;0.80;;;18.30;99.90;;;;;;4958114;28;21100;-84
2022/09/09 16:41:41;;;;;;;3.60;0.77;;;18.30;99.90;;;;;;4956278;28;20774;-84
2022/09/09 16:44:08;;;;;;;3.13;0.90;;;18.30;99.90;;;;;;4965954;28;20059;-85
2022/09/09 16:46:38;;;;;;;3.65;1.00;;;18.30;99.90;;;;;;4956870;28;20091;-84
2022/09/09 16:49:06;;;;;;;3.53;1.25;;;18.40;99.90;;;;;;4958141;28;20063;-84
2022/09/09 16:51:35;;;;;;;2.85;0.90;;;18.30;99.90;;;;;;4954312;28;20066;-84
2022/09/09 16:54:03;;;;;;;4.03;0.70;;;18.40;99.90;;;;;;4954961;28;20154;-84
2022/09/09 16:56:34;;;;;;;3.22;0.70;;;18.40;99.90;;;;;;4940581;29;20048;-85
2022/09/09 17:11:14;;;;;;;3.22;0.70;;;18.30;99.90;;;;;;4905435;29;20047;-86
2022/09/09 17:14:58;;;;;;;2.70;0.82;;;18.30;99.90;;;;;;4912986;29;20483;-86
2022/09/09 17:29:03;;;;;;;8.68;1.15;;;18.20;99.90;;;;;;4879896;29;20172;-85
2022/09/09 17:31:32;;;;;;;6.63;1.20;;;18.20;99.90;;;;;;4897638;29;20055;-85
2022/09/09 17:33:59;;;;;;;5.38;1.17;;;18.10;99.90;;;;;;4958550;28;20044;-84
2022/09/09 17:36:42;;;;;;;5.68;0.90;;;18.10;99.90;;;;;;4934544;28;20228;-84
2022/09/09 17:39:08;;;;;;;4.68;1.17;;;18.40;99.90;;;;;;4955713;28;20110;-85
2022/09/09 17:41:36;;;;;;;5.32;0.93;;;18.10;99.90;;;;;;4956492;29;20538;-84
2022/09/09 17:44:03;;;;;;;4.20;1.05;;;18.00;99.90;;;;;;4953846;28;20043;-84
2022/09/09 17:46:35;;;;;;;4.47;1.05;;;18.40;99.90;;;;;;4954184;28;20412;-84
2022/09/09 17:49:06;;;;;;;4.22;0.95;;;18.00;99.90;;;;;;4951665;28;20031;-84
2022/09/09 17:51:33;;;;;;;3.55;1.10;;;18.00;99.90;;;;;;4970289;28;20418;-84
2022/09/09 17:54:05;;;;;;;5.28;1.33;;;18.00;99.90;;;;;;4948146;28;20047;-84
2022/09/09 17:56:32;;;;;;;4.97;1.13;;;17.90;99.90;;;;;;4957625;28;20043;-84
2022/09/09 17:58:59;;;;;;;4.88;0.90;;;17.90;99.90;;;;;;4948349;28;20044;-84
2022/09/09 18:01:27;;;;;;;4.72;0.90;;;17.80;99.90;;;;;;4951908;28;20047;-85
2022/09/09 18:03:56;;;;;;;4.50;0.90;;;17.80;99.90;;;;;;4936934;29;20039;-84
2022/09/09 18:06:26;;;;;;;2.42;1.10;;;17.70;99.90;;;;;;4957646;28;20031;-84
2022/09/09 18:08:55;;;;;;;2.70;0.75;;;17.80;99.90;;;;;;4937797;28;20040;-85
2022/09/09 18:11:59;;;;;;;1.83;0.85;;;17.70;99.90;;;;;;4948351;28;20051;-86